sensor_id;sensor_type;location;lat;lon;timestamp;temperature;humidity
54680;DHT22;40578;53.178;5.846;2023-05-10T00:01:23;12.20;99.90
54680;DHT22;40578;53.178;5.846;2023-05-10T00:03:49;12.20;99.90
54680;DHT22;40578;53.178;5.846;2023-05-10T00:06:14;12.20;99.90
54680;DHT22;40578;53.178;5.846;2023-05-10T00:08:40;12.20;99.90
54680;DHT22;40578;53.178;5.846;2023-05-10T00:11:06;12.20;99.90
54680;DHT22;40578;53.178;5.846;2023-05-10T00:13:32;12.10;99.90
54680;DHT22;40578;53.178;5.846;2023-05-10T00:15:57;12.10;99.90
54680;DHT22;40578;53.178;5.846;2023-05-10T00:18:23;12.10;99.90
54680;DHT22;40578;53.178;5.846;2023-05-10T00:20:49;12.10;99.90
54680;DHT22;40578;53.178;5.846;2023-05-10T00:23:14;12.10;99.90
54680;DHT22;40578;53.178;5.846;2023-05-10T00:25:40;12.00;99.90
54680;DHT22;40578;53.178;5.846;2023-05-10T00:28:06;12.00;99.90
54680;DHT22;40578;53.178;5.846;2023-05-10T00:30:31;12.00;99.90
54680;DHT22;40578;53.178;5.846;2023-05-10T00:32:57;12.00;99.90
54680;DHT22;40578;53.178;5.846;2023-05-10T00:35:23;11.90;99.90
54680;DHT22;40578;53.178;5.846;2023-05-10T00:37:48;11.90;99.90
54680;DHT22;40578;53.178;5.846;2023-05-10T00:40:14;11.90;99.90
54680;DHT22;40578;53.178;5.846;2023-05-10T00:42:40;11.90;99.90
54680;DHT22;40578;53.178;5.846;2023-05-10T00:45:06;11.90;99.90
54680;DHT22;40578;53.178;5.846;2023-05-10T00:47:32;11.90;99.90
54680;DHT22;40578;53.178;5.846;2023-05-10T00:49:58;13.60;99.90
54680;DHT22;40578;53.178;5.846;2023-05-10T00:52:29;11.80;99.90
54680;DHT22;40578;53.178;5.846;2023-05-10T00:54:55;11.90;99.90
54680;DHT22;40578;53.178;5.846;2023-05-10T00:57:22;11.90;99.90
54680;DHT22;40578;53.178;5.846;2023-05-10T00:59:48;11.90;99.90
54680;DHT22;40578;53.178;5.846;2023-05-10T01:02:13;12.00;99.90
54680;DHT22;40578;53.178;5.846;2023-05-10T01:04:39;11.90;99.90
54680;DHT22;40578;53.178;5.846;2023-05-10T01:07:06;12.00;99.90
54680;DHT22;40578;53.178;5.846;2023-05-10T01:09:32;12.00;99.90
54680;DHT22;40578;53.178;5.846;2023-05-10T01:11:59;12.00;99.90
54680;DHT22;40578;53.178;5.846;2023-05-10T01:14:26;12.00;99.90
54680;DHT22;40578;53.178;5.846;2023-05-10T01:16:53;12.40;99.90
54680;DHT22;40578;53.178;5.846;2023-05-10T01:19:22;12.00;99.90
54680;DHT22;40578;53.178;5.846;2023-05-10T01:36:06;11.90;99.90
54680;DHT22;40578;53.178;5.846;2023-05-10T01:43:48;11.90;99.90
54680;DHT22;40578;53.178;5.846;2023-05-10T01:46:19;12.00;99.90
54680;DHT22;40578;53.178;5.846;2023-05-10T01:48:54;12.00;99.90
54680;DHT22;40578;53.178;5.846;2023-05-10T01:51:27;12.00;99.90
54680;DHT22;40578;53.178;5.846;2023-05-10T01:53:59;12.00;99.90
54680;DHT22;40578;53.178;5.846;2023-05-10T01:56:28;12.60;99.90
54680;DHT22;40578;53.178;5.846;2023-05-10T01:58:55;12.10;99.90
54680;DHT22;40578;53.178;5.846;2023-05-10T02:01:22;12.30;99.90
54680;DHT22;40578;53.178;5.846;2023-05-10T02:03:49;12.10;99.90
54680;DHT22;40578;53.178;5.846;2023-05-10T02:06:18;12.00;99.90
54680;DHT22;40578;53.178;5.846;2023-05-10T02:08:45;12.00;99.90
54680;DHT22;40578;53.178;5.846;2023-05-10T02:11:13;12.00;99.90
54680;DHT22;40578;53.178;5.846;2023-05-10T02:13:39;12.00;99.90
54680;DHT22;40578;53.178;5.846;2023-05-10T02:16:07;12.00;99.90
54680;DHT22;40578;53.178;5.846;2023-05-10T02:18:34;12.00;99.90
54680;DHT22;40578;53.178;5.846;2023-05-10T02:21:01;11.90;99.90
54680;DHT22;40578;53.178;5.846;2023-05-10T02:23:28;12.00;99.90
54680;DHT22;40578;53.178;5.846;2023-05-10T02:25:55;12.00;99.90
54680;DHT22;40578;53.178;5.846;2023-05-10T02:28:22;12.10;99.90
54680;DHT22;40578;53.178;5.846;2023-05-10T02:30:49;12.10;99.90
54680;DHT22;40578;53.178;5.846;2023-05-10T02:33:15;12.00;99.90
54680;DHT22;40578;53.178;5.846;2023-05-10T02:35:41;12.00;99.90
54680;DHT22;40578;53.178;5.846;2023-05-10T02:38:07;12.00;99.90
54680;DHT22;40578;53.178;5.846;2023-05-10T02:40:34;12.00;99.90
54680;DHT22;40578;53.178;5.846;2023-05-10T02:43:02;12.00;99.90
54680;DHT22;40578;53.178;5.846;2023-05-10T02:45:31;12.00;99.90
54680;DHT22;40578;53.178;5.846;2023-05-10T02:47:58;12.00;99.90
54680;DHT22;40578;53.178;5.846;2023-05-10T02:50:27;12.00;99.90
54680;DHT22;40578;53.178;5.846;2023-05-10T02:52:59;12.00;99.90
54680;DHT22;40578;53.178;5.846;2023-05-10T02:55:27;12.00;99.90
54680;DHT22;40578;53.178;5.846;2023-05-10T02:58:00;12.00;99.90
54680;DHT22;40578;53.178;5.846;2023-05-10T03:00:26;12.00;99.90
54680;DHT22;40578;53.178;5.846;2023-05-10T03:02:52;12.10;99.90
54680;DHT22;40578;53.178;5.846;2023-05-10T03:05:18;12.00;99.90
54680;DHT22;40578;53.178;5.846;2023-05-10T03:07:45;12.00;99.90
54680;DHT22;40578;53.178;5.846;2023-05-10T03:10:11;11.90;99.90
54680;DHT22;40578;53.178;5.846;2023-05-10T03:20:29;11.90;99.90
54680;DHT22;40578;53.178;5.846;2023-05-10T03:23:04;11.90;99.90
54680;DHT22;40578;53.178;5.846;2023-05-10T03:25:31;11.90;99.90
54680;DHT22;40578;53.178;5.846;2023-05-10T03:27:58;11.90;99.90
54680;DHT22;40578;53.178;5.846;2023-05-10T03:30:25;11.80;99.90
54680;DHT22;40578;53.178;5.846;2023-05-10T03:32:51;11.80;99.90
54680;DHT22;40578;53.178;5.846;2023-05-10T03:35:17;11.80;99.90
54680;DHT22;40578;53.178;5.846;2023-05-10T03:37:42;11.90;99.90
54680;DHT22;40578;53.178;5.846;2023-05-10T03:40:09;11.80;99.90
54680;DHT22;40578;53.178;5.846;2023-05-10T03:42:35;11.80;99.90
54680;DHT22;40578;53.178;5.846;2023-05-10T03:45:01;11.80;99.90
54680;DHT22;40578;53.178;5.846;2023-05-10T03:47:26;11.80;99.90
54680;DHT22;40578;53.178;5.846;2023-05-10T03:49:52;11.80;99.90
54680;DHT22;40578;53.178;5.846;2023-05-10T03:52:17;11.80;99.90
54680;DHT22;40578;53.178;5.846;2023-05-10T03:54:43;11.80;99.90
54680;DHT22;40578;53.178;5.846;2023-05-10T03:57:09;11.70;99.90
54680;DHT22;40578;53.178;5.846;2023-05-10T03:59:35;11.80;99.90
54680;DHT22;40578;53.178;5.846;2023-05-10T04:02:00;11.80;99.90
54680;DHT22;40578;53.178;5.846;2023-05-10T04:04:26;12.10;99.90
54680;DHT22;40578;53.178;5.846;2023-05-10T04:06:52;11.80;99.90
54680;DHT22;40578;53.178;5.846;2023-05-10T04:09:17;11.80;99.90
54680;DHT22;40578;53.178;5.846;2023-05-10T04:11:43;11.70;99.90
54680;DHT22;40578;53.178;5.846;2023-05-10T04:14:09;11.80;99.90
54680;DHT22;40578;53.178;5.846;2023-05-10T04:16:34;11.80;99.90
54680;DHT22;40578;53.178;5.846;2023-05-10T04:19:00;11.70;99.90
54680;DHT22;40578;53.178;5.846;2023-05-10T04:21:25;11.70;99.90
54680;DHT22;40578;53.178;5.846;2023-05-10T04:23:51;11.90;99.90
54680;DHT22;40578;53.178;5.846;2023-05-10T04:26:17;11.80;99.90
54680;DHT22;40578;53.178;5.846;2023-05-10T04:28:42;11.70;99.90
54680;DHT22;40578;53.178;5.846;2023-05-10T04:31:09;11.70;99.90
54680;DHT22;40578;53.178;5.846;2023-05-10T04:33:35;11.70;99.90
54680;DHT22;40578;53.178;5.846;2023-05-10T04:36:02;11.70;99.90
54680;DHT22;40578;53.178;5.846;2023-05-10T04:38:28;11.70;99.90
54680;DHT22;40578;53.178;5.846;2023-05-10T04:40:54;11.80;99.90
54680;DHT22;40578;53.178;5.846;2023-05-10T04:43:20;11.70;99.90
54680;DHT22;40578;53.178;5.846;2023-05-10T04:45:45;11.80;99.90
54680;DHT22;40578;53.178;5.846;2023-05-10T04:48:11;11.80;99.90
54680;DHT22;40578;53.178;5.846;2023-05-10T04:50:37;13.20;99.90
54680;DHT22;40578;53.178;5.846;2023-05-10T04:53:02;11.80;99.90
54680;DHT22;40578;53.178;5.846;2023-05-10T04:55:28;11.80;99.90
54680;DHT22;40578;53.178;5.846;2023-05-10T04:57:53;11.80;99.90
54680;DHT22;40578;53.178;5.846;2023-05-10T05:00:22;11.60;99.90
54680;DHT22;40578;53.178;5.846;2023-05-10T05:02:48;11.50;99.90
54680;DHT22;40578;53.178;5.846;2023-05-10T05:05:15;11.40;99.90
54680;DHT22;40578;53.178;5.846;2023-05-10T05:07:40;11.90;99.90
54680;DHT22;40578;53.178;5.846;2023-05-10T05:10:07;11.50;99.90
54680;DHT22;40578;53.178;5.846;2023-05-10T05:12:34;12.00;99.90
54680;DHT22;40578;53.178;5.846;2023-05-10T05:14:59;12.00;99.90
54680;DHT22;40578;53.178;5.846;2023-05-10T05:17:25;11.80;99.90
54680;DHT22;40578;53.178;5.846;2023-05-10T05:19:51;11.70;99.90
54680;DHT22;40578;53.178;5.846;2023-05-10T05:22:16;11.90;99.90
54680;DHT22;40578;53.178;5.846;2023-05-10T05:24:42;13.40;99.90
54680;DHT22;40578;53.178;5.846;2023-05-10T05:27:08;11.90;99.90
54680;DHT22;40578;53.178;5.846;2023-05-10T05:29:33;11.50;99.90
54680;DHT22;40578;53.178;5.846;2023-05-10T05:31:59;11.80;99.90
54680;DHT22;40578;53.178;5.846;2023-05-10T05:34:25;11.40;99.90
54680;DHT22;40578;53.178;5.846;2023-05-10T05:36:51;11.50;99.90
54680;DHT22;40578;53.178;5.846;2023-05-10T05:39:17;11.40;99.90
54680;DHT22;40578;53.178;5.846;2023-05-10T05:41:42;12.00;99.90
54680;DHT22;40578;53.178;5.846;2023-05-10T05:44:08;12.10;99.90
54680;DHT22;40578;53.178;5.846;2023-05-10T05:46:34;11.70;99.90
54680;DHT22;40578;53.178;5.846;2023-05-10T05:49:00;12.10;99.90
54680;DHT22;40578;53.178;5.846;2023-05-10T05:51:25;11.50;99.90
54680;DHT22;40578;53.178;5.846;2023-05-10T05:53:51;12.00;99.90
54680;DHT22;40578;53.178;5.846;2023-05-10T05:56:16;12.00;99.90
54680;DHT22;40578;53.178;5.846;2023-05-10T05:58:52;11.50;99.90
54680;DHT22;40578;53.178;5.846;2023-05-10T06:01:18;11.50;99.90
54680;DHT22;40578;53.178;5.846;2023-05-10T06:03:43;11.50;99.90
54680;DHT22;40578;53.178;5.846;2023-05-10T06:06:09;11.80;99.90
54680;DHT22;40578;53.178;5.846;2023-05-10T06:08:34;11.50;99.90
54680;DHT22;40578;53.178;5.846;2023-05-10T06:11:01;11.70;99.90
54680;DHT22;40578;53.178;5.846;2023-05-10T06:13:26;12.10;99.90
54680;DHT22;40578;53.178;5.846;2023-05-10T06:15:58;12.30;99.90
54680;DHT22;40578;53.178;5.846;2023-05-10T06:18:24;11.60;99.90
54680;DHT22;40578;53.178;5.846;2023-05-10T06:20:50;11.90;99.90
54680;DHT22;40578;53.178;5.846;2023-05-10T06:23:15;12.40;99.90
54680;DHT22;40578;53.178;5.846;2023-05-10T06:25:41;12.40;99.90
54680;DHT22;40578;53.178;5.846;2023-05-10T06:28:07;11.70;99.90
54680;DHT22;40578;53.178;5.846;2023-05-10T06:30:32;12.80;99.90
54680;DHT22;40578;53.178;5.846;2023-05-10T06:32:58;11.90;99.90
54680;DHT22;40578;53.178;5.846;2023-05-10T06:35:24;11.80;99.90
54680;DHT22;40578;53.178;5.846;2023-05-10T06:37:50;12.30;99.90
54680;DHT22;40578;53.178;5.846;2023-05-10T06:40:16;12.20;99.90
54680;DHT22;40578;53.178;5.846;2023-05-10T06:42:42;11.70;99.90
54680;DHT22;40578;53.178;5.846;2023-05-10T06:45:08;11.70;99.90
54680;DHT22;40578;53.178;5.846;2023-05-10T06:47:34;11.90;99.90
54680;DHT22;40578;53.178;5.846;2023-05-10T06:50:00;11.80;99.90
54680;DHT22;40578;53.178;5.846;2023-05-10T06:52:25;11.80;99.90
54680;DHT22;40578;53.178;5.846;2023-05-10T06:54:51;12.30;99.90
54680;DHT22;40578;53.178;5.846;2023-05-10T06:57:17;11.70;99.90
54680;DHT22;40578;53.178;5.846;2023-05-10T06:59:43;11.80;99.90
54680;DHT22;40578;53.178;5.846;2023-05-10T07:02:08;11.80;99.90
54680;DHT22;40578;53.178;5.846;2023-05-10T07:04:34;12.50;99.90
54680;DHT22;40578;53.178;5.846;2023-05-10T07:07:00;12.30;99.90
54680;DHT22;40578;53.178;5.846;2023-05-10T07:09:25;12.50;99.90
54680;DHT22;40578;53.178;5.846;2023-05-10T07:11:51;11.70;99.90
54680;DHT22;40578;53.178;5.846;2023-05-10T07:14:16;11.70;99.90
54680;DHT22;40578;53.178;5.846;2023-05-10T07:16:42;12.30;99.90
54680;DHT22;40578;53.178;5.846;2023-05-10T07:19:07;12.80;99.90
54680;DHT22;40578;53.178;5.846;2023-05-10T07:21:33;11.80;99.90
54680;DHT22;40578;53.178;5.846;2023-05-10T07:24:00;12.20;99.90
54680;DHT22;40578;53.178;5.846;2023-05-10T07:26:26;12.10;99.90
54680;DHT22;40578;53.178;5.846;2023-05-10T07:28:51;11.80;99.90
54680;DHT22;40578;53.178;5.846;2023-05-10T07:31:17;11.70;99.90
54680;DHT22;40578;53.178;5.846;2023-05-10T07:33:43;12.10;99.90
54680;DHT22;40578;53.178;5.846;2023-05-10T07:36:08;12.30;99.90
54680;DHT22;40578;53.178;5.846;2023-05-10T07:38:34;12.40;99.90
54680;DHT22;40578;53.178;5.846;2023-05-10T07:41:00;12.50;99.90
54680;DHT22;40578;53.178;5.846;2023-05-10T07:43:25;11.80;99.90
54680;DHT22;40578;53.178;5.846;2023-05-10T07:45:51;12.60;99.90
54680;DHT22;40578;53.178;5.846;2023-05-10T07:48:16;11.90;99.90
54680;DHT22;40578;53.178;5.846;2023-05-10T07:50:42;12.40;99.90
54680;DHT22;40578;53.178;5.846;2023-05-10T07:53:08;11.80;99.90
54680;DHT22;40578;53.178;5.846;2023-05-10T07:55:33;12.90;99.90
54680;DHT22;40578;53.178;5.846;2023-05-10T07:57:59;12.00;99.90
54680;DHT22;40578;53.178;5.846;2023-05-10T08:00:26;12.20;99.90
54680;DHT22;40578;53.178;5.846;2023-05-10T08:02:52;12.20;99.90
54680;DHT22;40578;53.178;5.846;2023-05-10T08:05:18;12.20;99.90
54680;DHT22;40578;53.178;5.846;2023-05-10T08:07:44;13.20;99.90
54680;DHT22;40578;53.178;5.846;2023-05-10T08:10:10;13.10;99.90
54680;DHT22;40578;53.178;5.846;2023-05-10T08:12:38;13.30;99.90
54680;DHT22;40578;53.178;5.846;2023-05-10T08:15:05;13.20;99.90
54680;DHT22;40578;53.178;5.846;2023-05-10T08:17:31;13.40;99.90
54680;DHT22;40578;53.178;5.846;2023-05-10T08:19:57;12.50;99.90
54680;DHT22;40578;53.178;5.846;2023-05-10T08:22:23;12.80;99.90
54680;DHT22;40578;53.178;5.846;2023-05-10T08:24:48;12.50;99.90
54680;DHT22;40578;53.178;5.846;2023-05-10T08:27:14;12.90;99.90
54680;DHT22;40578;53.178;5.846;2023-05-10T08:29:40;12.50;99.90
54680;DHT22;40578;53.178;5.846;2023-05-10T08:32:05;12.80;99.90
54680;DHT22;40578;53.178;5.846;2023-05-10T08:34:31;12.50;99.90
54680;DHT22;40578;53.178;5.846;2023-05-10T08:36:57;12.50;99.90
54680;DHT22;40578;53.178;5.846;2023-05-10T08:39:22;12.70;99.90
54680;DHT22;40578;53.178;5.846;2023-05-10T08:41:51;12.40;99.90
54680;DHT22;40578;53.178;5.846;2023-05-10T08:44:19;12.30;99.90
54680;DHT22;40578;53.178;5.846;2023-05-10T08:46:46;13.10;99.90
54680;DHT22;40578;53.178;5.846;2023-05-10T08:49:16;12.70;99.90
54680;DHT22;40578;53.178;5.846;2023-05-10T08:51:49;13.30;99.90
54680;DHT22;40578;53.178;5.846;2023-05-10T08:54:16;13.00;99.90
54680;DHT22;40578;53.178;5.846;2023-05-10T08:56:42;13.10;99.90
54680;DHT22;40578;53.178;5.846;2023-05-10T08:59:08;13.20;99.90
54680;DHT22;40578;53.178;5.846;2023-05-10T09:01:35;13.10;99.90
54680;DHT22;40578;53.178;5.846;2023-05-10T09:04:02;14.70;99.90
54680;DHT22;40578;53.178;5.846;2023-05-10T09:06:28;12.60;99.90
54680;DHT22;40578;53.178;5.846;2023-05-10T09:08:54;13.20;99.90
54680;DHT22;40578;53.178;5.846;2023-05-10T09:11:23;13.30;99.90
54680;DHT22;40578;53.178;5.846;2023-05-10T09:13:50;13.20;99.90
54680;DHT22;40578;53.178;5.846;2023-05-10T09:16:17;12.90;99.90
54680;DHT22;40578;53.178;5.846;2023-05-10T09:18:43;12.90;99.90
54680;DHT22;40578;53.178;5.846;2023-05-10T09:21:09;13.10;99.90
54680;DHT22;40578;53.178;5.846;2023-05-10T09:23:36;12.60;99.90
54680;DHT22;40578;53.178;5.846;2023-05-10T09:26:05;13.20;99.90
54680;DHT22;40578;53.178;5.846;2023-05-10T09:28:35;13.20;99.90
54680;DHT22;40578;53.178;5.846;2023-05-10T09:31:15;12.60;99.90
54680;DHT22;40578;53.178;5.846;2023-05-10T09:33:47;13.40;99.90
54680;DHT22;40578;53.178;5.846;2023-05-10T09:36:13;13.20;99.90
54680;DHT22;40578;53.178;5.846;2023-05-10T09:38:49;12.90;99.90
54680;DHT22;40578;53.178;5.846;2023-05-10T09:41:23;13.30;99.90
54680;DHT22;40578;53.178;5.846;2023-05-10T09:43:51;13.30;99.90
54680;DHT22;40578;53.178;5.846;2023-05-10T09:46:22;13.00;99.90
54680;DHT22;40578;53.178;5.846;2023-05-10T09:48:48;13.30;99.90
54680;DHT22;40578;53.178;5.846;2023-05-10T09:51:21;13.00;99.90
54680;DHT22;40578;53.178;5.846;2023-05-10T09:53:47;13.50;99.90
54680;DHT22;40578;53.178;5.846;2023-05-10T09:56:32;13.00;99.90
54680;DHT22;40578;53.178;5.846;2023-05-10T09:59:02;12.90;99.90
54680;DHT22;40578;53.178;5.846;2023-05-10T10:01:29;13.20;99.90
54680;DHT22;40578;53.178;5.846;2023-05-10T10:03:54;13.20;99.90
54680;DHT22;40578;53.178;5.846;2023-05-10T10:06:23;13.50;99.90
54680;DHT22;40578;53.178;5.846;2023-05-10T10:08:49;13.50;99.90
54680;DHT22;40578;53.178;5.846;2023-05-10T10:11:15;13.20;99.90
54680;DHT22;40578;53.178;5.846;2023-05-10T10:13:41;13.40;99.90
54680;DHT22;40578;53.178;5.846;2023-05-10T10:16:08;13.40;99.90
54680;DHT22;40578;53.178;5.846;2023-05-10T10:18:36;13.20;99.90
54680;DHT22;40578;53.178;5.846;2023-05-10T10:21:05;13.00;99.90
54680;DHT22;40578;53.178;5.846;2023-05-10T10:23:31;13.30;99.90
54680;DHT22;40578;53.178;5.846;2023-05-10T10:25:57;13.80;99.90
54680;DHT22;40578;53.178;5.846;2023-05-10T10:28:31;13.60;99.90
54680;DHT22;40578;53.178;5.846;2023-05-10T10:31:23;13.20;99.90
54680;DHT22;40578;53.178;5.846;2023-05-10T10:33:59;13.80;99.90
54680;DHT22;40578;53.178;5.846;2023-05-10T10:36:26;13.80;99.90
54680;DHT22;40578;53.178;5.846;2023-05-10T10:38:58;13.80;99.90
54680;DHT22;40578;53.178;5.846;2023-05-10T10:47:07;13.50;99.90
54680;DHT22;40578;53.178;5.846;2023-05-10T10:55:05;14.00;99.90
54680;DHT22;40578;53.178;5.846;2023-05-10T10:57:35;13.70;99.90
54680;DHT22;40578;53.178;5.846;2023-05-10T11:00:28;13.80;99.90
54680;DHT22;40578;53.178;5.846;2023-05-10T11:03:04;14.10;99.90
54680;DHT22;40578;53.178;5.846;2023-05-10T11:05:34;14.10;99.90
54680;DHT22;40578;53.178;5.846;2023-05-10T11:08:28;13.90;99.90
54680;DHT22;40578;53.178;5.846;2023-05-10T11:19:04;13.70;99.90
54680;DHT22;40578;53.178;5.846;2023-05-10T11:21:31;13.50;99.90
54680;DHT22;40578;53.178;5.846;2023-05-10T11:23:58;13.50;99.90
54680;DHT22;40578;53.178;5.846;2023-05-10T11:26:29;13.70;99.90
54680;DHT22;40578;53.178;5.846;2023-05-10T11:28:55;13.60;99.90
54680;DHT22;40578;53.178;5.846;2023-05-10T11:31:21;13.60;99.90
54680;DHT22;40578;53.178;5.846;2023-05-10T11:33:49;13.60;99.90
54680;DHT22;40578;53.178;5.846;2023-05-10T11:38:42;13.60;99.90
54680;DHT22;40578;53.178;5.846;2023-05-10T11:41:09;13.80;99.90
54680;DHT22;40578;53.178;5.846;2023-05-10T11:43:35;13.90;99.90
54680;DHT22;40578;53.178;5.846;2023-05-10T11:46:04;13.90;99.90
54680;DHT22;40578;53.178;5.846;2023-05-10T11:48:30;13.90;99.90
54680;DHT22;40578;53.178;5.846;2023-05-10T11:50:56;14.20;99.90
54680;DHT22;40578;53.178;5.846;2023-05-10T11:53:24;14.10;99.90
54680;DHT22;40578;53.178;5.846;2023-05-10T11:55:51;14.30;99.90
54680;DHT22;40578;53.178;5.846;2023-05-10T11:58:18;14.50;99.90
54680;DHT22;40578;53.178;5.846;2023-05-10T12:00:44;14.50;99.90
54680;DHT22;40578;53.178;5.846;2023-05-10T12:03:10;14.50;99.90
54680;DHT22;40578;53.178;5.846;2023-05-10T12:05:36;14.60;99.90
54680;DHT22;40578;53.178;5.846;2023-05-10T12:08:12;14.70;99.90
54680;DHT22;40578;53.178;5.846;2023-05-10T12:10:38;14.80;99.90
54680;DHT22;40578;53.178;5.846;2023-05-10T12:13:03;15.20;99.90
54680;DHT22;40578;53.178;5.846;2023-05-10T12:15:29;15.20;99.90
54680;DHT22;40578;53.178;5.846;2023-05-10T12:17:56;15.20;99.90
54680;DHT22;40578;53.178;5.846;2023-05-10T12:20:24;15.20;99.90
54680;DHT22;40578;53.178;5.846;2023-05-10T12:22:55;15.30;99.90
54680;DHT22;40578;53.178;5.846;2023-05-10T12:25:23;15.80;99.90
54680;DHT22;40578;53.178;5.846;2023-05-10T12:27:54;15.60;99.90
54680;DHT22;40578;53.178;5.846;2023-05-10T12:30:21;15.70;99.90
54680;DHT22;40578;53.178;5.846;2023-05-10T12:32:47;15.90;99.90
54680;DHT22;40578;53.178;5.846;2023-05-10T12:35:13;16.00;99.90
54680;DHT22;40578;53.178;5.846;2023-05-10T12:37:38;16.00;99.90
54680;DHT22;40578;53.178;5.846;2023-05-10T12:40:09;16.00;99.90
54680;DHT22;40578;53.178;5.846;2023-05-10T12:42:36;15.80;99.90
54680;DHT22;40578;53.178;5.846;2023-05-10T12:45:04;15.70;99.90
54680;DHT22;40578;53.178;5.846;2023-05-10T12:47:30;15.60;99.90
54680;DHT22;40578;53.178;5.846;2023-05-10T12:49:55;15.60;99.90
54680;DHT22;40578;53.178;5.846;2023-05-10T12:52:21;15.50;99.90
54680;DHT22;40578;53.178;5.846;2023-05-10T12:54:46;16.20;99.90
54680;DHT22;40578;53.178;5.846;2023-05-10T12:57:13;15.80;99.90
54680;DHT22;40578;53.178;5.846;2023-05-10T12:59:38;15.90;99.90
54680;DHT22;40578;53.178;5.846;2023-05-10T13:02:04;15.80;99.90
54680;DHT22;40578;53.178;5.846;2023-05-10T13:04:30;15.60;99.90
54680;DHT22;40578;53.178;5.846;2023-05-10T13:06:56;15.70;99.90
54680;DHT22;40578;53.178;5.846;2023-05-10T13:09:24;15.60;99.90
54680;DHT22;40578;53.178;5.846;2023-05-10T13:11:50;15.60;99.90
54680;DHT22;40578;53.178;5.846;2023-05-10T13:14:16;15.50;99.90
54680;DHT22;40578;53.178;5.846;2023-05-10T13:16:42;15.50;99.90
54680;DHT22;40578;53.178;5.846;2023-05-10T13:19:07;16.10;99.90
54680;DHT22;40578;53.178;5.846;2023-05-10T13:21:33;15.50;99.90
54680;DHT22;40578;53.178;5.846;2023-05-10T13:23:58;15.50;99.90
54680;DHT22;40578;53.178;5.846;2023-05-10T13:26:25;15.60;99.90
54680;DHT22;40578;53.178;5.846;2023-05-10T13:28:51;15.60;99.90
54680;DHT22;40578;53.178;5.846;2023-05-10T13:31:17;15.80;99.90
54680;DHT22;40578;53.178;5.846;2023-05-10T13:33:43;15.80;99.90
54680;DHT22;40578;53.178;5.846;2023-05-10T13:36:08;15.80;99.90
54680;DHT22;40578;53.178;5.846;2023-05-10T13:38:34;15.70;99.90
54680;DHT22;40578;53.178;5.846;2023-05-10T13:41:00;15.80;99.90
54680;DHT22;40578;53.178;5.846;2023-05-10T13:43:25;16.00;99.90
54680;DHT22;40578;53.178;5.846;2023-05-10T13:45:51;15.70;99.90
54680;DHT22;40578;53.178;5.846;2023-05-10T13:48:17;15.50;99.90
54680;DHT22;40578;53.178;5.846;2023-05-10T13:50:43;15.50;99.90
54680;DHT22;40578;53.178;5.846;2023-05-10T13:53:08;15.60;99.90
54680;DHT22;40578;53.178;5.846;2023-05-10T13:55:34;15.60;99.90
54680;DHT22;40578;53.178;5.846;2023-05-10T13:58:00;15.70;99.90
54680;DHT22;40578;53.178;5.846;2023-05-10T14:00:26;15.60;99.90
54680;DHT22;40578;53.178;5.846;2023-05-10T14:02:52;15.60;99.90
54680;DHT22;40578;53.178;5.846;2023-05-10T14:05:18;15.60;99.90
54680;DHT22;40578;53.178;5.846;2023-05-10T14:07:44;15.70;99.90
54680;DHT22;40578;53.178;5.846;2023-05-10T14:10:10;15.80;99.90
54680;DHT22;40578;53.178;5.846;2023-05-10T14:12:38;15.80;99.90
54680;DHT22;40578;53.178;5.846;2023-05-10T14:15:05;15.90;99.90
54680;DHT22;40578;53.178;5.846;2023-05-10T14:17:32;15.80;99.90
54680;DHT22;40578;53.178;5.846;2023-05-10T14:19:57;15.90;99.90
54680;DHT22;40578;53.178;5.846;2023-05-10T14:22:23;15.90;99.90
54680;DHT22;40578;53.178;5.846;2023-05-10T14:24:49;15.80;99.90
54680;DHT22;40578;53.178;5.846;2023-05-10T14:27:14;15.80;99.90
54680;DHT22;40578;53.178;5.846;2023-05-10T14:29:40;15.90;99.90
54680;DHT22;40578;53.178;5.846;2023-05-10T14:32:06;16.00;99.90
54680;DHT22;40578;53.178;5.846;2023-05-10T14:34:31;16.00;99.90
54680;DHT22;40578;53.178;5.846;2023-05-10T14:36:58;16.10;99.90
54680;DHT22;40578;53.178;5.846;2023-05-10T14:39:24;16.30;99.90
54680;DHT22;40578;53.178;5.846;2023-05-10T14:41:49;16.40;99.90
54680;DHT22;40578;53.178;5.846;2023-05-10T14:44:17;16.60;99.90
54680;DHT22;40578;53.178;5.846;2023-05-10T14:46:43;16.60;99.90
54680;DHT22;40578;53.178;5.846;2023-05-10T14:49:09;16.70;99.90
54680;DHT22;40578;53.178;5.846;2023-05-10T14:51:35;17.00;99.90
54680;DHT22;40578;53.178;5.846;2023-05-10T14:54:02;17.00;99.90
54680;DHT22;40578;53.178;5.846;2023-05-10T14:56:28;17.00;99.90
54680;DHT22;40578;53.178;5.846;2023-05-10T14:58:54;16.90;99.90
54680;DHT22;40578;53.178;5.846;2023-05-10T15:01:20;16.80;99.90
54680;DHT22;40578;53.178;5.846;2023-05-10T15:03:46;16.60;99.90
54680;DHT22;40578;53.178;5.846;2023-05-10T15:06:14;16.40;99.90
54680;DHT22;40578;53.178;5.846;2023-05-10T15:08:41;16.40;99.90
54680;DHT22;40578;53.178;5.846;2023-05-10T15:11:06;16.30;99.90
54680;DHT22;40578;53.178;5.846;2023-05-10T15:13:32;16.10;99.90
54680;DHT22;40578;53.178;5.846;2023-05-10T15:15:58;16.10;99.90
54680;DHT22;40578;53.178;5.846;2023-05-10T15:18:23;16.20;99.90
54680;DHT22;40578;53.178;5.846;2023-05-10T15:20:49;16.40;99.90
54680;DHT22;40578;53.178;5.846;2023-05-10T15:23:15;16.30;99.90
54680;DHT22;40578;53.178;5.846;2023-05-10T15:25:40;16.40;99.90
54680;DHT22;40578;53.178;5.846;2023-05-10T15:28:06;16.40;99.90
54680;DHT22;40578;53.178;5.846;2023-05-10T15:30:31;16.50;99.90
54680;DHT22;40578;53.178;5.846;2023-05-10T15:32:59;16.50;99.90
54680;DHT22;40578;53.178;5.846;2023-05-10T15:35:26;16.60;99.90
54680;DHT22;40578;53.178;5.846;2023-05-10T15:37:51;16.20;99.90
54680;DHT22;40578;53.178;5.846;2023-05-10T15:40:17;15.90;99.90
54680;DHT22;40578;53.178;5.846;2023-05-10T15:42:42;15.80;99.90
54680;DHT22;40578;53.178;5.846;2023-05-10T15:45:09;15.80;99.90
54680;DHT22;40578;53.178;5.846;2023-05-10T15:47:34;15.70;99.90
54680;DHT22;40578;53.178;5.846;2023-05-10T15:50:00;15.80;99.90
54680;DHT22;40578;53.178;5.846;2023-05-10T15:52:26;15.70;99.90
54680;DHT22;40578;53.178;5.846;2023-05-10T15:54:51;15.50;99.90
54680;DHT22;40578;53.178;5.846;2023-05-10T15:57:17;15.50;99.90
54680;DHT22;40578;53.178;5.846;2023-05-10T15:59:43;15.50;99.90
54680;DHT22;40578;53.178;5.846;2023-05-10T16:02:09;15.70;99.90
54680;DHT22;40578;53.178;5.846;2023-05-10T16:04:35;15.70;99.90
54680;DHT22;40578;53.178;5.846;2023-05-10T16:07:02;15.90;99.90
54680;DHT22;40578;53.178;5.846;2023-05-10T16:09:27;16.20;99.90
54680;DHT22;40578;53.178;5.846;2023-05-10T16:11:53;16.30;99.90
54680;DHT22;40578;53.178;5.846;2023-05-10T16:14:19;16.30;99.90
54680;DHT22;40578;53.178;5.846;2023-05-10T16:16:47;16.40;99.90